Vidfoss — V2QK4 — position and weather

sailwx.info

Track history (hours):
 
Tides and Currents Weather Stations Pressure Air Temp Water Temp Dewpoint Dewpoint Depression Visibility Wind Speed Wind Dir Waves Ship Positions

Vidfoss

Last reported at 2017-Jan-21 17:23 UTC. Time now 2017-Jan-23 14:55 UTC.
Position N 54°51' E 019°10'.

Length 93 m; draft 5.4 m.

Type: Cargo ship. MMSI: 305846000.

Date/timePositionNaut miles runAvg speedWind from/ knotsBaromVisibWave heightAir tempDewpointWater temp
2017-Jan-21 17:23N 54°51' E 019°10'1012.2
2017-Jan-21 16:33N 54°43' E 018°59'1212.1
2017-Jan-21 15:33N 54°33' E 018°49'10 9.7
2017-Jan-21 14:33N 54°25' E 018°40'0 0.1
2017-Jan-21 13:33N 54°25' E 018°40'0 0.0
2017-Jan-21 12:33N 54°25' E 018°40'0 0.0
2017-Jan-21 11:33N 54°25' E 018°40'0 0.0
2017-Jan-21 10:33N 54°25' E 018°40'0 0.0
2017-Jan-21 09:33N 54°25' E 018°40'0 0.0
2017-Jan-21 08:33N 54°25' E 018°40'0 0.0
2017-Jan-21 07:33N 54°25' E 018°40'0 0.0
2017-Jan-21 06:33N 54°25' E 018°40'2 2.2
2017-Jan-21 05:33N 54°27' E 018°39'5 4.9
2017-Jan-21 04:33N 54°30' E 018°45'1211.6
2017-Jan-21 03:33N 54°40' E 018°56'1111.2
2017-Jan-21 02:33N 54°51' E 018°51'1312.6
2017-Jan-21 01:33N 54°57' E 018°32'1312.5
2017-Jan-21 00:33N 54°58' E 018°10'18211.3
2017-Jan-20 08:32N 55°14' E 012°54'1111.1
2017-Jan-20 07:33N 55°21' E 012°38'1211.7
2017-Jan-20 06:33N 55°32' E 012°42'1111.5
2017-Jan-20 05:33N 55°43' E 012°41'1211.9
2017-Jan-20 04:34N 55°55' E 012°38'1110.7
2017-Jan-20 03:32N 56°06' E 012°33'7212.0
2017-Jan-19 21:34N 57°10' E 011°36'1212.3
2017-Jan-19 20:33N 57°22' E 011°28'1212.3
2017-Jan-19 19:33N 57°32' E 011°15'1312.6
2017-Jan-19 18:33N 57°40' E 010°58'1312.9
2017-Jan-19 17:34N 57°48' E 010°38'11412.7
2017-Jan-19 08:33N 57°55' E 007°04'1313.0
2017-Jan-19 07:34N 58°00' E 006°42'1212.3
2017-Jan-19 06:33N 58°08' E 006°23'1212.0
2017-Jan-19 05:32N 58°16' E 006°06'1212.3
2017-Jan-19 04:33N 58°24' E 005°49'1211.8
2017-Jan-19 03:33N 58°33' E 005°34'1211.5
2017-Jan-19 02:33N 58°43' E 005°24'1211.7
2017-Jan-19 01:33N 58°54' E 005°20'1211.7
2017-Jan-19 00:33N 59°06' E 005°20'216 8.3
2017-Jan-17 22:29N 62°40' E 006°25'1010.8
2017-Jan-17 21:34N 62°48' E 006°37'2211.1
2017-Jan-17 19:34N 63°03' E 007°14'1211.7
2017-Jan-17 18:34N 63°08' E 007°37'1211.8
2017-Jan-17 17:34N 63°14' E 007°60'3511.6
2017-Jan-17 14:33N 63°31' E 009°08'1111.2
2017-Jan-17 13:33N 63°37' E 009°28'7 7.2
2017-Jan-17 12:33N 63°44' E 009°36'0 0.0
2017-Jan-17 11:33N 63°44' E 009°36'0 0.0
2017-Jan-17 10:34N 63°44' E 009°36'0 0.0
2017-Jan-17 09:33N 63°44' E 009°36'0 0.0
2017-Jan-17 08:34N 63°44' E 009°36'0 0.0
2017-Jan-17 07:33N 63°44' E 009°36'0 0.0
2017-Jan-17 06:34N 63°44' E 009°36'0 0.0
2017-Jan-17 05:34N 63°44' E 009°36'0 0.0
2017-Jan-17 04:34N 63°44' E 009°36'0 0.0
2017-Jan-17 03:34N 63°44' E 009°36'0 0.0
2017-Jan-17 02:33N 63°44' E 009°36'0 0.0
2017-Jan-17 01:34N 63°44' E 009°36'0 0.0
2017-Jan-17 00:33N 63°44' E 009°36'0 0.0
2017-Jan-16 23:33N 63°44' E 009°36'5 5.3
2017-Jan-16 22:33N 63°39' E 009°29'1211.7
2017-Jan-16 21:32N 63°31' E 009°10'3112.7
2017-Jan-16 19:05N 63°16' E 008°09'712.7
2017-Jan-16 18:33N 63°13' E 007°55'1212.3
2017-Jan-16 17:33N 63°06' E 007°32'2912.1
2017-Jan-16 15:09N 62°50' E 006°40'8 0.4
2017-Jan-15 16:18N 62°43' E 006°30'2910.5
2017-Jan-15 13:34N 63°03' E 007°16'1010.4
2017-Jan-15 12:34N 63°08' E 007°36'1111.1
2017-Jan-15 11:33N 63°14' E 007°57'3411.3
2017-Jan-15 08:33N 63°30' E 009°04'1311.6
2017-Jan-15 07:28N 63°37' E 009°28'87 9.7
2017-Jan-14 22:34N 64°51' E 011°12'7 7.5
2017-Jan-14 21:34N 64°56' E 011°25'1111.4
2017-Jan-14 20:33N 65°04' E 011°45'1212.2
2017-Jan-14 19:32N 65°15' E 011°56'5811.5
2017-Jan-14 14:30N 66°10' E 012°39'1110.4
2017-Jan-14 13:29N 66°17' E 012°19'1010.9
2017-Jan-14 12:34N 66°25' E 012°05'5 5.1
2017-Jan-14 11:33N 66°30' E 012°06'0 0.0
2017-Jan-14 10:34N 66°30' E 012°06'0 0.0
2017-Jan-14 09:34N 66°30' E 012°06'0 0.0
2017-Jan-14 08:34N 66°30' E 012°06'0 0.0
2017-Jan-14 07:34N 66°30' E 012°06'0 0.0
2017-Jan-14 06:34N 66°30' E 012°06'2 1.7
2017-Jan-14 05:34N 66°29' E 012°08'1111.1
2017-Jan-14 04:32N 66°39' E 012°21'  
Track history (hours):
 
Tides and Currents Weather Stations Pressure Air Temp Water Temp Dewpoint Dewpoint Depression Visibility Wind Speed Wind Dir Waves Ship Positions

Vidfoss

Last reported at 2017-Jan-21 17:23 UTC. Time now 2017-Jan-23 14:55 UTC.
Position N 54°51' E 019°10'.

Length 93 m; draft 5.4 m.

Type: Cargo ship. MMSI: 305846000.

Date/timePositionNaut miles runAvg speedWind from/ knotsBaromVisibWave heightAir tempDewpointWater temp
2017-Jan-21 17:23N 54°51' E 019°10'1012.2
2017-Jan-21 16:33N 54°43' E 018°59'1212.1
2017-Jan-21 15:33N 54°33' E 018°49'10 9.7
2017-Jan-21 14:33N 54°25' E 018°40'0 0.1
2017-Jan-21 13:33N 54°25' E 018°40'0 0.0
2017-Jan-21 12:33N 54°25' E 018°40'0 0.0
2017-Jan-21 11:33N 54°25' E 018°40'0 0.0
2017-Jan-21 10:33N 54°25' E 018°40'0 0.0
2017-Jan-21 09:33N 54°25' E 018°40'0 0.0
2017-Jan-21 08:33N 54°25' E 018°40'0 0.0
2017-Jan-21 07:33N 54°25' E 018°40'0 0.0
2017-Jan-21 06:33N 54°25' E 018°40'2 2.2
2017-Jan-21 05:33N 54°27' E 018°39'5 4.9
2017-Jan-21 04:33N 54°30' E 018°45'1211.6
2017-Jan-21 03:33N 54°40' E 018°56'1111.2
2017-Jan-21 02:33N 54°51' E 018°51'1312.6
2017-Jan-21 01:33N 54°57' E 018°32'1312.5
2017-Jan-21 00:33N 54°58' E 018°10'18211.3
2017-Jan-20 08:32N 55°14' E 012°54'1111.1
2017-Jan-20 07:33N 55°21' E 012°38'1211.7
2017-Jan-20 06:33N 55°32' E 012°42'1111.5
2017-Jan-20 05:33N 55°43' E 012°41'1211.9
2017-Jan-20 04:34N 55°55' E 012°38'1110.7
2017-Jan-20 03:32N 56°06' E 012°33'7212.0
2017-Jan-19 21:34N 57°10' E 011°36'1212.3
2017-Jan-19 20:33N 57°22' E 011°28'1212.3
2017-Jan-19 19:33N 57°32' E 011°15'1312.6
2017-Jan-19 18:33N 57°40' E 010°58'1312.9
2017-Jan-19 17:34N 57°48' E 010°38'11412.7
2017-Jan-19 08:33N 57°55' E 007°04'1313.0
2017-Jan-19 07:34N 58°00' E 006°42'1212.3
2017-Jan-19 06:33N 58°08' E 006°23'1212.0
2017-Jan-19 05:32N 58°16' E 006°06'1212.3
2017-Jan-19 04:33N 58°24' E 005°49'1211.8
2017-Jan-19 03:33N 58°33' E 005°34'1211.5
2017-Jan-19 02:33N 58°43' E 005°24'1211.7
2017-Jan-19 01:33N 58°54' E 005°20'1211.7
2017-Jan-19 00:33N 59°06' E 005°20'216 8.3
2017-Jan-17 22:29N 62°40' E 006°25'1010.8
2017-Jan-17 21:34N 62°48' E 006°37'2211.1
2017-Jan-17 19:34N 63°03' E 007°14'1211.7
2017-Jan-17 18:34N 63°08' E 007°37'1211.8
2017-Jan-17 17:34N 63°14' E 007°60'3511.6
2017-Jan-17 14:33N 63°31' E 009°08'1111.2
2017-Jan-17 13:33N 63°37' E 009°28'7 7.2
2017-Jan-17 12:33N 63°44' E 009°36'0 0.0
2017-Jan-17 11:33N 63°44' E 009°36'0 0.0
2017-Jan-17 10:34N 63°44' E 009°36'0 0.0
2017-Jan-17 09:33N 63°44' E 009°36'0 0.0
2017-Jan-17 08:34N 63°44' E 009°36'0 0.0
2017-Jan-17 07:33N 63°44' E 009°36'0 0.0
2017-Jan-17 06:34N 63°44' E 009°36'0 0.0
2017-Jan-17 05:34N 63°44' E 009°36'0 0.0
2017-Jan-17 04:34N 63°44' E 009°36'0 0.0
2017-Jan-17 03:34N 63°44' E 009°36'0 0.0
2017-Jan-17 02:33N 63°44' E 009°36'0 0.0
2017-Jan-17 01:34N 63°44' E 009°36'0 0.0
2017-Jan-17 00:33N 63°44' E 009°36'0 0.0
2017-Jan-16 23:33N 63°44' E 009°36'5 5.3
2017-Jan-16 22:33N 63°39' E 009°29'1211.7
2017-Jan-16 21:32N 63°31' E 009°10'3112.7
2017-Jan-16 19:05N 63°16' E 008°09'712.7
2017-Jan-16 18:33N 63°13' E 007°55'1212.3
2017-Jan-16 17:33N 63°06' E 007°32'2912.1
2017-Jan-16 15:09N 62°50' E 006°40'8 0.4
2017-Jan-15 16:18N 62°43' E 006°30'2910.5
2017-Jan-15 13:34N 63°03' E 007°16'1010.4
2017-Jan-15 12:34N 63°08' E 007°36'1111.1
2017-Jan-15 11:33N 63°14' E 007°57'3411.3
2017-Jan-15 08:33N 63°30' E 009°04'1311.6
2017-Jan-15 07:28N 63°37' E 009°28'87 9.7
2017-Jan-14 22:34N 64°51' E 011°12'7 7.5
2017-Jan-14 21:34N 64°56' E 011°25'1111.4
2017-Jan-14 20:33N 65°04' E 011°45'1212.2
2017-Jan-14 19:32N 65°15' E 011°56'5811.5
2017-Jan-14 14:30N 66°10' E 012°39'1110.4
2017-Jan-14 13:29N 66°17' E 012°19'1010.9
2017-Jan-14 12:34N 66°25' E 012°05'5 5.1
2017-Jan-14 11:33N 66°30' E 012°06'0 0.0
2017-Jan-14 10:34N 66°30' E 012°06'0 0.0
2017-Jan-14 09:34N 66°30' E 012°06'0 0.0
2017-Jan-14 08:34N 66°30' E 012°06'0 0.0
2017-Jan-14 07:34N 66°30' E 012°06'0 0.0
2017-Jan-14 06:34N 66°30' E 012°06'2 1.7
2017-Jan-14 05:34N 66°29' E 012°08'1111.1
2017-Jan-14 04:32N 66°39' E 012°21'  

Dump ship's entire track history